Time;durP1;ratioP1;P1;durP2;ratioP2;P2;SDS_P1;SDS_P2;PMS_P1;PMS_P2;Temp;Humidity;BMP_temperature;BMP_pressure;BME280_temperature;BME280_humidity;BME280_pressure;Samples;Min_cycle;Max_cycle;Signal;HPM_P1;HPM_P2
2023/07/01 00:01:22;;;;;;;14.45;7.93;;;12.40;1.00;;;;;;5056134;28;20174;-75
2023/07/01 00:03:48;;;;;;;15.10;8.20;;;12.10;1.00;;;;;;5046229;28;20554;-74
2023/07/01 00:06:14;;;;;;;12.63;8.02;;;12.10;99.90;;;;;;5053606;28;20223;-74
2023/07/01 00:08:40;;;;;;;8.70;7.80;;;12.10;1.00;;;;;;5049171;28;20193;-75
2023/07/01 00:11:07;;;;;;;16.75;8.50;;;12.20;1.00;;;;;;5046677;28;20182;-74
2023/07/01 00:13:33;;;;;;;11.05;8.35;;;12.10;99.90;;;;;;5050278;28;20213;-74
2023/07/01 00:15:59;;;;;;;13.45;8.77;;;12.10;1.00;;;;;;5056027;28;20268;-74
2023/07/01 00:18:25;;;;;;;13.18;8.68;;;12.10;52.00;;;;;;5054663;28;20193;-75
2023/07/01 00:20:51;;;;;;;13.52;9.38;;;12.00;1.00;;;;;;5048675;28;20538;-75
2023/07/01 00:23:17;;;;;;;16.77;9.90;;;12.00;1.00;;;;;;5056877;28;20225;-74
2023/07/01 00:25:43;;;;;;;11.45;8.82;;;12.00;99.90;;;;;;5047823;28;20908;-74
2023/07/01 00:28:09;;;;;;;12.23;9.15;;;12.00;1.00;;;;;;5045265;28;20192;-74
2023/07/01 00:30:34;;;;;;;14.05;9.68;;;11.90;96.00;;;;;;5050892;28;20178;-76
2023/07/01 00:33:00;;;;;;;9.98;8.90;;;11.90;99.90;;;;;;5052110;28;20212;-74
2023/07/01 00:35:26;;;;;;;17.95;9.38;;;11.80;1.00;;;;;;5057116;28;20278;-74
2023/07/01 00:37:52;;;;;;;16.95;10.13;;;11.80;1.00;;;;;;5048757;28;20186;-74
2023/07/01 00:40:17;;;;;;;16.30;9.57;;;11.80;1.00;;;;;;5054074;28;20185;-74
2023/07/01 00:42:44;;;;;;;14.52;10.25;;;11.70;1.00;;;;;;5049215;28;20257;-74
2023/07/01 00:45:10;;;;;;;15.43;9.98;;;11.60;1.00;;;;;;5054303;28;20201;-73
2023/07/01 00:47:38;;;;;;;15.68;10.15;;;11.70;14.40;;;;;;5046086;28;20185;-75
2023/07/01 00:50:05;;;;;;;11.05;9.82;;;11.60;99.90;;;;;;5047371;28;20182;-74
2023/07/01 00:52:31;;;;;;;11.63;8.82;;;11.60;1.00;;;;;;5058022;28;20192;-73
2023/07/01 00:54:57;;;;;;;16.75;10.02;;;11.60;1.00;;;;;;5045585;28;20174;-73
2023/07/01 00:57:22;;;;;;;15.93;9.18;;;11.50;1.00;;;;;;5048461;28;20189;-73
2023/07/01 00:59:48;;;;;;;15.55;9.82;;;11.50;7.90;;;;;;5051475;28;20737;-74
2023/07/01 01:02:25;;;;;;;11.38;9.75;;;11.40;1.00;;;;;;5054627;28;20262;-74
2023/07/01 01:05:10;;;;;;;13.68;10.02;;;11.40;64.10;;;;;;5046978;28;20196;-75
2023/07/01 01:07:44;;;;;;;16.30;9.32;;;11.40;99.90;;;;;;5053926;28;21054;-74
2023/07/01 01:10:14;;;;;;;15.60;9.50;;;11.30;99.90;;;;;;5056101;28;20611;-74
2023/07/01 01:12:42;;;;;;;17.23;9.95;;;11.30;99.90;;;;;;5049814;28;20205;-74
2023/07/01 01:15:10;;;;;;;13.27;8.73;;;11.30;99.90;;;;;;5053995;28;20232;-74
2023/07/01 01:17:41;;;;;;;14.38;9.38;;;11.30;99.90;;;;;;5047392;28;20193;-75
2023/07/01 01:20:13;;;;;;;18.98;9.73;;;11.30;14.70;;;;;;5048848;28;20186;-76
2023/07/01 01:23:03;;;;;;;17.23;9.90;;;11.30;1.00;;;;;;5054016;28;20184;-74
2023/07/01 01:25:37;;;;;;;15.30;8.82;;;11.30;1.00;;;;;;5031946;28;20214;-74
2023/07/01 01:28:03;;;;;;;18.90;10.70;;;11.20;1.00;;;;;;5050413;28;20178;-74
2023/07/01 01:30:31;;;;;;;16.13;8.82;;;11.20;60.70;;;;;;5047512;28;20277;-74
2023/07/01 01:32:57;;;;;;;20.80;9.43;;;11.20;99.90;;;;;;5049362;28;20237;-73
2023/07/01 01:35:23;;;;;;;12.95;9.07;;;11.30;99.90;;;;;;5049092;28;20505;-73
2023/07/01 01:37:52;;;;;;;15.30;8.80;;;11.30;1.00;;;;;;5043930;28;20178;-73
2023/07/01 01:40:20;;;;;;;13.00;9.10;;;11.30;1.00;;;;;;5044907;28;20273;-74
2023/07/01 01:42:47;;;;;;;9.82;8.10;;;11.40;1.00;;;;;;5048525;28;20174;-74
2023/07/01 01:45:18;;;;;;;11.07;7.65;;;11.40;1.00;;;;;;5048111;28;20205;-74
2023/07/01 01:47:44;;;;;;;10.27;7.90;;;11.50;1.00;;;;;;5054659;28;20190;-74
2023/07/01 01:50:11;;;;;;;8.15;7.35;;;11.70;1.00;;;;;;5051015;28;20726;-74
2023/07/01 01:52:38;;;;;;;10.20;7.50;;;11.60;99.90;;;;;;5053365;28;20251;-74
2023/07/01 01:55:06;;;;;;;10.77;6.70;;;11.40;1.00;;;;;;5050137;28;20912;-76
2023/07/01 01:57:31;;;;;;;12.63;6.68;;;11.50;1.00;;;;;;5057762;28;20192;-75
2023/07/01 01:59:57;;;;;;;14.23;6.22;;;11.50;99.90;;;;;;5045696;28;20190;-74
2023/07/01 02:02:23;;;;;;;13.38;6.40;;;11.40;99.90;;;;;;5043642;28;20260;-74
2023/07/01 02:04:48;;;;;;;11.20;6.68;;;11.40;99.90;;;;;;5047034;28;20178;-74
2023/07/01 02:07:14;;;;;;;15.02;6.63;;;11.30;1.00;;;;;;5053128;28;20268;-74
2023/07/01 02:09:39;;;;;;;11.77;6.30;;;11.30;1.00;;;;;;5047981;28;20182;-74
2023/07/01 02:12:05;;;;;;;13.65;6.82;;;11.30;99.90;;;;;;5046142;28;20193;-75
2023/07/01 02:14:31;;;;;;;12.93;6.40;;;11.20;1.00;;;;;;5047929;28;20218;-74
2023/07/01 02:16:57;;;;;;;15.80;6.78;;;11.20;99.90;;;;;;5044053;28;20206;-75
2023/07/01 02:19:22;;;;;;;13.25;6.32;;;11.20;1.00;;;;;;5043460;28;20209;-74
2023/07/01 02:21:48;;;;;;;13.15;6.85;;;11.10;1.00;;;;;;5034109;28;20587;-74
2023/07/01 02:24:14;;;;;;;11.20;6.60;;;11.10;92.30;;;;;;5048779;28;20186;-74
2023/07/01 02:26:39;;;;;;;9.90;6.78;;;11.00;1.00;;;;;;5044657;28;20288;-74
2023/07/01 02:29:05;;;;;;;12.43;6.57;;;11.10;1.00;;;;;;5059225;28;20181;-73
2023/07/01 02:31:30;;;;;;;11.40;6.80;;;11.10;1.00;;;;;;5049523;28;20185;-74
2023/07/01 02:34:03;;;;;;;7.90;6.43;;;11.20;99.90;;;;;;5052285;28;20259;-74
2023/07/01 02:36:29;;;;;;;12.38;6.97;;;11.30;99.90;;;;;;5045038;28;20473;-73
2023/07/01 02:38:55;;;;;;;13.27;6.93;;;11.50;1.00;;;;;;5047040;28;20650;-73
2023/07/01 02:41:20;;;;;;;13.80;6.40;;;11.50;1.00;;;;;;5045685;28;20265;-73
2023/07/01 02:43:46;;;;;;;11.95;6.55;;;11.50;1.00;;;;;;5046327;28;20205;-73
2023/07/01 02:46:12;;;;;;;10.27;6.07;;;11.60;99.90;;;;;;5043485;28;20252;-74
2023/07/01 02:48:37;;;;;;;12.68;5.80;;;11.70;99.90;;;;;;5051784;28;20217;-74
2023/07/01 02:51:04;;;;;;;13.18;6.03;;;11.70;1.00;;;;;;5048370;28;20194;-74
2023/07/01 02:53:30;;;;;;;10.88;6.20;;;11.70;1.00;;;;;;5043220;28;20635;-73
2023/07/01 02:55:55;;;;;;;12.77;5.70;;;11.70;1.00;;;;;;5044662;28;20297;-74
2023/07/01 02:58:22;;;;;;;11.13;6.50;;;11.80;1.00;;;;;;5044028;28;20193;-74
2023/07/01 03:00:47;;;;;;;11.00;5.80;;;11.80;99.90;;;;;;5053410;28;20175;-74
2023/07/01 03:03:13;;;;;;;10.82;6.22;;;11.80;1.00;;;;;;5043231;28;20194;-74
2023/07/01 03:05:39;;;;;;;15.20;6.28;;;12.20;42.80;;;;;;5043862;28;20205;-73
2023/07/01 03:08:05;;;;;;;10.30;6.03;;;12.20;1.00;;;;;;5047439;28;20185;-74
2023/07/01 03:10:31;;;;;;;13.05;5.90;;;12.10;99.90;;;;;;5046397;28;20562;-74
2023/07/01 03:12:57;;;;;;;11.88;5.25;;;12.10;99.90;;;;;;5050144;28;20703;-74
2023/07/01 03:15:23;;;;;;;11.73;5.57;;;12.20;99.90;;;;;;5045866;28;20202;-74
2023/07/01 03:17:48;;;;;;;11.30;5.53;;;12.30;99.90;;;;;;5036957;28;20749;-73
2023/07/01 03:20:22;;;;;;;8.30;5.45;;;12.80;1.00;;;;;;5046951;28;20572;-74
2023/07/01 03:22:58;;;;;;;9.25;5.05;;;12.50;57.30;;;;;;5037206;28;20182;-74
2023/07/01 03:25:24;;;;;;;9.90;4.95;;;12.40;33.50;;;;;;5051137;28;20249;-73
2023/07/01 03:27:50;;;;;;;7.20;4.70;;;12.50;99.90;;;;;;5051981;28;20546;-73
2023/07/01 03:30:17;;;;;;;6.55;4.85;;;12.60;99.90;;;;;;5035554;28;20248;-74
2023/07/01 03:32:44;;;;;;;9.27;5.13;;;12.90;1.00;;;;;;5055992;28;20220;-75
2023/07/01 03:35:11;;;;;;;7.30;4.70;;;13.10;99.90;;;;;;5047065;28;20210;-73
2023/07/01 03:37:43;;;;;;;5.38;4.20;;;13.10;99.90;;;;;;5046900;28;20190;-75
2023/07/01 03:40:12;;;;;;;6.15;4.13;;;13.10;1.00;;;;;;5046620;28;20269;-74
2023/07/01 03:42:41;;;;;;;6.88;3.97;;;13.10;25.10;;;;;;5051087;28;20665;-74
2023/07/01 03:45:09;;;;;;;5.85;3.90;;;13.10;1.00;;;;;;5052606;28;20187;-74
2023/07/01 03:47:36;;;;;;;7.68;4.15;;;13.20;1.00;;;;;;5055347;28;20228;-74
2023/07/01 03:50:02;;;;;;;6.22;3.80;;;13.30;99.90;;;;;;5049814;28;20178;-74
2023/07/01 03:52:28;;;;;;;5.95;3.53;;;13.30;99.90;;;;;;5047428;28;20213;-75
2023/07/01 03:54:53;;;;;;;7.13;3.90;;;13.30;1.00;;;;;;5057366;28;20245;-74
2023/07/01 03:57:19;;;;;;;8.35;4.00;;;13.30;99.90;;;;;;5051362;28;20221;-74
2023/07/01 03:59:44;;;;;;;5.15;3.53;;;13.40;99.90;;;;;;5050100;28;20252;-73
2023/07/01 04:02:10;;;;;;;6.57;3.65;;;13.40;1.00;;;;;;5051568;28;20207;-74
2023/07/01 04:04:36;;;;;;;6.30;3.50;;;13.40;1.00;;;;;;5056942;28;20181;-74
2023/07/01 04:07:04;;;;;;;6.68;3.42;;;13.40;91.60;;;;;;5049204;28;20209;-73
2023/07/01 04:09:30;;;;;;;3.58;3.25;;;13.50;1.00;;;;;;5057179;28;20221;-74
2023/07/01 04:11:55;;;;;;;5.03;3.60;;;13.50;1.00;;;;;;5053731;28;20218;-74
2023/07/01 04:14:23;;;;;;;5.10;3.70;;;13.50;99.90;;;;;;5046596;28;20213;-74
2023/07/01 04:16:49;;;;;;;5.13;3.45;;;13.50;1.00;;;;;;5050599;28;20218;-74
2023/07/01 04:19:15;;;;;;;5.22;3.00;;;13.60;99.90;;;;;;5058085;28;20284;-74
2023/07/01 04:21:40;;;;;;;4.47;2.90;;;13.70;1.00;;;;;;5054747;28;20699;-73
2023/07/01 04:24:07;;;;;;;4.57;2.97;;;13.80;99.90;;;;;;5052307;28;20241;-75
2023/07/01 04:26:34;;;;;;;6.97;3.05;;;14.00;99.90;;;;;;5055478;28;20216;-73
2023/07/01 04:29:00;;;;;;;9.02;3.60;;;14.00;99.90;;;;;;5051555;28;20232;-74
2023/07/01 04:31:26;;;;;;;3.92;3.17;;;14.20;99.90;;;;;;5047760;28;20293;-74
2023/07/01 04:33:52;;;;;;;7.93;3.60;;;14.30;98.00;;;;;;5053641;28;20316;-74
2023/07/01 04:36:17;;;;;;;4.38;2.97;;;14.30;32.30;;;;;;5048608;28;20202;-73
2023/07/01 04:38:43;;;;;;;7.00;3.15;;;14.30;1.00;;;;;;5045952;28;20183;-74
2023/07/01 04:41:08;;;;;;;4.63;2.88;;;14.30;1.00;;;;;;5053011;28;20186;-74
2023/07/01 04:43:35;;;;;;;3.10;2.40;;;14.40;1.00;;;;;;5047526;28;20226;-74
2023/07/01 04:46:00;;;;;;;3.83;3.00;;;14.50;1.00;;;;;;5050722;28;20707;-74
2023/07/01 04:48:26;;;;;;;6.60;3.10;;;14.70;1.00;;;;;;5047320;28;20229;-73
2023/07/01 04:50:51;;;;;;;4.85;2.65;;;15.10;1.00;;;;;;5056137;28;20270;-75
2023/07/01 04:53:17;;;;;;;5.07;3.10;;;15.30;1.00;;;;;;5049853;28;20579;-74
2023/07/01 04:55:43;;;;;;;3.70;2.17;;;15.60;1.00;;;;;;5058079;28;20715;-73
2023/07/01 04:58:08;;;;;;;2.28;2.10;;;16.20;1.00;;;;;;5050601;28;20209;-74
2023/07/01 05:00:34;;;;;;;4.60;2.60;;;16.60;99.90;;;;;;5051859;28;20178;-73
2023/07/01 05:03:00;;;;;;;3.88;2.00;;;18.00;99.90;;;;;;5051073;28;20190;-74
2023/07/01 05:05:25;;;;;;;4.78;1.90;;;20.00;99.90;;;;;;5046947;28;20289;-73
2023/07/01 05:07:51;;;;;;;2.85;1.73;;;21.50;1.00;;;;;;5046626;28;20183;-73
2023/07/01 05:10:17;;;;;;;3.65;1.58;;;22.20;1.00;;;;;;5060613;28;20960;-74
2023/07/01 05:12:42;;;;;;;4.07;1.70;;;22.20;1.00;;;;;;5045876;28;20661;-73
2023/07/01 05:15:09;;;;;;;4.78;1.65;;;22.10;1.00;;;;;;5050688;28;20239;-74
2023/07/01 05:17:34;;;;;;;3.05;1.35;;;21.60;1.00;;;;;;5053291;28;20244;-73
2023/07/01 05:20:00;;;;;;;3.88;1.63;;;21.60;1.00;;;;;;5053829;28;20186;-73
2023/07/01 05:22:25;;;;;;;5.13;1.85;;;21.20;1.00;;;;;;5045544;28;20186;-73
2023/07/01 05:24:51;;;;;;;4.50;1.75;;;20.40;1.00;;;;;;5055736;28;20178;-73
2023/07/01 05:27:16;;;;;;;5.35;2.00;;;19.50;1.00;;;;;;5055687;28;20191;-73
2023/07/01 05:29:42;;;;;;;3.30;1.92;;;19.50;1.00;;;;;;5046253;28;20638;-73
2023/07/01 05:32:08;;;;;;;3.08;1.90;;;19.70;1.00;;;;;;5052332;28;20177;-74
2023/07/01 05:34:33;;;;;;;4.90;1.92;;;19.90;1.00;;;;;;5046900;28;20212;-73
2023/07/01 05:36:59;;;;;;;4.20;2.03;;;20.00;1.00;;;;;;5049443;28;20661;-73
2023/07/01 05:39:25;;;;;;;4.43;1.80;;;20.20;1.00;;;;;;5050563;28;20188;-73
2023/07/01 05:41:50;;;;;;;7.75;1.77;;;20.40;1.00;;;;;;5032435;28;20178;-73
2023/07/01 05:44:16;;;;;;;5.72;1.80;;;21.20;1.00;;;;;;5052714;28;20186;-74
2023/07/01 05:46:42;;;;;;;3.17;1.98;;;22.10;1.00;;;;;;5052823;28;20660;-73
2023/07/01 05:49:08;;;;;;;7.60;1.80;;;22.70;1.00;;;;;;5048605;28;20229;-73
2023/07/01 05:51:34;;;;;;;4.22;1.65;;;22.50;1.00;;;;;;5047178;28;20186;-73
2023/07/01 05:53:59;;;;;;;3.90;1.83;;;22.00;1.00;;;;;;5045032;28;20217;-73
2023/07/01 05:56:25;;;;;;;3.45;2.03;;;20.80;1.00;;;;;;5053945;28;20644;-73
2023/07/01 05:58:51;;;;;;;4.65;1.92;;;20.80;1.00;;;;;;5050966;28;20228;-73
2023/07/01 06:01:16;;;;;;;3.10;2.10;;;20.40;1.00;;;;;;5048932;28;20186;-73
2023/07/01 06:03:42;;;;;;;5.13;2.22;;;20.40;1.00;;;;;;5046733;28;20667;-73
2023/07/01 06:06:07;;;;;;;7.05;2.28;;;21.00;1.00;;;;;;5054456;28;20220;-73
2023/07/01 06:08:33;;;;;;;4.68;1.90;;;22.10;1.00;;;;;;5046859;28;20688;-73
2023/07/01 06:10:58;;;;;;;2.55;1.95;;;22.20;1.00;;;;;;5047040;28;20186;-74
2023/07/01 06:13:24;;;;;;;4.53;1.80;;;22.60;1.00;;;;;;5053346;28;20252;-73
2023/07/01 06:15:50;;;;;;;2.20;1.65;;;24.00;1.00;;;;;;5045313;28;20369;-74
2023/07/01 06:18:15;;;;;;;4.15;1.88;;;25.50;1.00;;;;;;5055837;28;20182;-74
2023/07/01 06:20:41;;;;;;;3.55;1.50;;;26.60;1.00;;;;;;5046162;28;20181;-74
2023/07/01 06:23:06;;;;;;;3.22;1.55;;;25.90;1.00;;;;;;5026538;28;20320;-73
2023/07/01 06:25:32;;;;;;;1.65;1.30;;;25.70;1.00;;;;;;5049049;28;20581;-74
2023/07/01 06:27:57;;;;;;;4.22;1.70;;;25.70;1.00;;;;;;5048657;28;20193;-73
2023/07/01 06:30:23;;;;;;;2.05;1.60;;;25.60;1.00;;;;;;5045578;28;20195;-74
2023/07/01 06:32:49;;;;;;;2.25;1.42;;;25.00;1.00;;;;;;5048008;28;20680;-74
2023/07/01 06:35:14;;;;;;;4.30;1.70;;;24.00;1.00;;;;;;5051661;28;20202;-73
2023/07/01 06:37:40;;;;;;;4.10;1.63;;;24.40;1.00;;;;;;5028997;28;20178;-74
2023/07/01 06:40:06;;;;;;;2.95;1.50;;;26.00;1.00;;;;;;5044531;28;20178;-74
2023/07/01 06:42:31;;;;;;;2.92;1.70;;;26.30;1.00;;;;;;5044169;28;20186;-74
2023/07/01 06:44:57;;;;;;;4.80;2.00;;;25.70;1.00;;;;;;5044669;28;20200;-73
2023/07/01 06:47:23;;;;;;;1.88;1.55;;;25.50;1.00;;;;;;5047073;28;20186;-73
2023/07/01 06:49:48;;;;;;;3.47;1.80;;;24.70;1.00;;;;;;5048367;28;20181;-74
2023/07/01 06:52:14;;;;;;;2.45;1.50;;;24.50;1.00;;;;;;5055198;28;20198;-73
2023/07/01 06:54:39;;;;;;;4.20;1.52;;;24.60;1.00;;;;;;5047442;28;20697;-73
2023/07/01 06:57:05;;;;;;;2.10;1.35;;;24.50;1.00;;;;;;5032617;28;20214;-73
2023/07/01 06:59:31;;;;;;;2.13;1.30;;;24.10;1.00;;;;;;5047145;28;20210;-73
2023/07/01 07:01:56;;;;;;;1.30;1.20;;;24.50;1.00;;;;;;5029857;28;20194;-74
2023/07/01 07:04:22;;;;;;;2.63;1.40;;;25.20;1.00;;;;;;5047454;28;20716;-73
2023/07/01 07:06:47;;;;;;;4.13;1.40;;;26.20;1.00;;;;;;5059506;28;20934;-73
2023/07/01 07:09:14;;;;;;;2.85;1.50;;;26.80;1.00;;;;;;5055293;28;20190;-73
2023/07/01 07:11:40;;;;;;;3.75;1.50;;;26.60;1.00;;;;;;5052623;28;20227;-73
2023/07/01 07:14:05;;;;;;;1.38;1.17;;;26.30;1.00;;;;;;5039412;28;20213;-73
2023/07/01 07:16:33;;;;;;;3.58;1.60;;;25.60;1.00;;;;;;5049754;28;20208;-73
2023/07/01 07:18:59;;;;;;;1.90;1.52;;;24.60;1.00;;;;;;5049362;28;20205;-72
2023/07/01 07:21:24;;;;;;;4.32;1.73;;;24.30;1.00;;;;;;5055944;28;20225;-73
2023/07/01 07:23:50;;;;;;;2.58;1.67;;;24.00;1.00;;;;;;5055165;28;20672;-73
2023/07/01 07:26:15;;;;;;;2.40;1.63;;;23.50;1.00;;;;;;5055670;28;20237;-73
2023/07/01 07:28:41;;;;;;;3.47;1.27;;;23.00;1.00;;;;;;5052083;28;20196;-72
2023/07/01 07:31:06;;;;;;;2.72;1.60;;;22.60;1.00;;;;;;5053806;28;20244;-73
2023/07/01 07:33:32;;;;;;;2.05;1.50;;;22.40;1.00;;;;;;5046929;28;20713;-74
2023/07/01 07:35:58;;;;;;;2.58;1.45;;;22.20;1.00;;;;;;5052373;28;20623;-73
2023/07/01 07:38:23;;;;;;;1.85;1.63;;;22.10;1.00;;;;;;5036116;28;20542;-74
2023/07/01 07:40:49;;;;;;;1.50;1.33;;;22.00;1.00;;;;;;5055122;28;20269;-74
2023/07/01 07:43:15;;;;;;;2.45;1.60;;;21.70;1.00;;;;;;5054253;28;20836;-73
2023/07/01 07:45:40;;;;;;;1.30;1.20;;;21.50;1.00;;;;;;5052548;28;20583;-73
2023/07/01 07:48:06;;;;;;;3.00;1.55;;;21.30;1.00;;;;;;5033422;28;20186;-74
2023/07/01 07:50:33;;;;;;;1.98;1.60;;;21.30;1.00;;;;;;5056736;28;20196;-73
2023/07/01 07:52:58;;;;;;;5.00;1.98;;;21.30;1.00;;;;;;5046445;28;20711;-73
2023/07/01 07:55:26;;;;;;;2.40;1.30;;;21.20;1.00;;;;;;5051173;28;20206;-73
2023/07/01 07:57:51;;;;;;;3.15;1.73;;;21.40;1.00;;;;;;5046240;28;20221;-74
2023/07/01 08:00:17;;;;;;;2.63;1.60;;;21.30;1.00;;;;;;5054201;28;20685;-74
2023/07/01 08:02:46;;;;;;;3.03;1.73;;;21.30;1.00;;;;;;5046299;28;20221;-75
2023/07/01 08:05:16;;;;;;;2.45;1.80;;;21.40;1.00;;;;;;5046043;28;20202;-73
2023/07/01 08:07:42;;;;;;;3.40;1.50;;;21.30;1.00;;;;;;5046703;28;20181;-73
2023/07/01 08:10:08;;;;;;;2.15;1.42;;;21.40;1.00;;;;;;5045567;28;20208;-73
2023/07/01 08:12:33;;;;;;;2.58;1.58;;;21.40;1.00;;;;;;5050737;28;20190;-74
2023/07/01 08:14:59;;;;;;;2.75;1.30;;;21.60;1.00;;;;;;5047754;28;20209;-73
2023/07/01 08:17:25;;;;;;;3.25;1.40;;;21.60;1.00;;;;;;5053668;28;20446;-74
2023/07/01 08:19:50;;;;;;;2.70;1.30;;;21.70;1.00;;;;;;5053611;28;20220;-73
2023/07/01 08:22:18;;;;;;;3.17;1.52;;;21.50;1.00;;;;;;5053732;28;20661;-73
2023/07/01 08:24:43;;;;;;;2.05;1.60;;;21.60;1.00;;;;;;5051100;28;20709;-74
2023/07/01 08:27:09;;;;;;;2.13;1.55;;;21.90;1.00;;;;;;5046135;28;20210;-73
2023/07/01 08:29:35;;;;;;;1.70;1.30;;;22.10;1.00;;;;;;5049617;28;20486;-74
2023/07/01 08:32:00;;;;;;;2.97;1.50;;;22.30;1.00;;;;;;5047504;28;20342;-74
2023/07/01 08:34:26;;;;;;;2.22;1.48;;;22.10;1.00;;;;;;5045415;28;20224;-74
2023/07/01 08:36:51;;;;;;;4.40;1.75;;;21.90;1.00;;;;;;5046051;28;20264;-73
2023/07/01 08:39:17;;;;;;;2.60;1.60;;;21.70;1.00;;;;;;5051770;28;20629;-73
2023/07/01 08:41:50;;;;;;;1.42;1.20;;;21.50;1.00;;;;;;5048860;28;20177;-73
2023/07/01 08:44:17;;;;;;;1.95;1.33;;;21.50;1.00;;;;;;5030620;28;20190;-73
2023/07/01 08:46:43;;;;;;;3.05;1.40;;;21.40;1.00;;;;;;5054481;28;20243;-73
2023/07/01 08:49:10;;;;;;;4.05;1.77;;;21.30;1.00;;;;;;5053743;28;20186;-73
2023/07/01 08:51:40;;;;;;;4.32;1.60;;;21.10;1.00;;;;;;5047489;28;20218;-73
2023/07/01 08:54:07;;;;;;;2.13;1.33;;;21.20;1.00;;;;;;5053454;28;20783;-74
2023/07/01 08:56:33;;;;;;;3.10;1.58;;;21.10;1.00;;;;;;5053463;28;20197;-73
2023/07/01 08:58:59;;;;;;;2.80;1.48;;;21.10;1.00;;;;;;5049307;28;20997;-73
2023/07/01 09:01:25;;;;;;;2.83;1.95;;;21.10;1.00;;;;;;5045901;28;20540;-73
2023/07/01 09:03:51;;;;;;;2.85;1.45;;;21.10;1.00;;;;;;5045337;28;20182;-74
2023/07/01 09:06:17;;;;;;;3.15;1.63;;;21.20;1.00;;;;;;5044973;28;20202;-74
2023/07/01 09:08:42;;;;;;;1.50;1.35;;;21.20;1.00;;;;;;5044968;28;20192;-72
2023/07/01 09:11:14;;;;;;;2.13;1.70;;;21.10;1.00;;;;;;5045121;28;20193;-73
2023/07/01 09:13:40;;;;;;;3.58;1.40;;;20.90;1.00;;;;;;5051163;28;20217;-74
2023/07/01 09:16:06;;;;;;;2.33;1.58;;;21.00;1.00;;;;;;5055889;28;20216;-73
2023/07/01 09:18:32;;;;;;;2.72;1.63;;;21.20;1.00;;;;;;5047875;28;20193;-73
2023/07/01 09:20:58;;;;;;;2.38;1.55;;;21.20;1.00;;;;;;5052267;28;20186;-75
2023/07/01 09:23:35;;;;;;;2.75;1.77;;;21.20;1.00;;;;;;5048406;28;20192;-73
2023/07/01 09:26:19;;;;;;;2.65;1.50;;;21.20;1.00;;;;;;5056106;28;20208;-73
2023/07/01 09:28:53;;;;;;;2.17;1.60;;;21.10;1.00;;;;;;5049944;28;20186;-73
2023/07/01 09:31:19;;;;;;;3.10;1.77;;;21.20;1.00;;;;;;5030758;28;20201;-74
2023/07/01 09:34:03;;;;;;;4.57;1.92;;;21.30;1.00;;;;;;5047677;28;20575;-73
2023/07/01 09:36:31;;;;;;;2.60;1.85;;;21.40;1.00;;;;;;5054115;28;20202;-73
2023/07/01 09:38:57;;;;;;;2.75;1.55;;;21.70;1.00;;;;;;5045463;28;20204;-73
2023/07/01 09:41:26;;;;;;;4.28;1.80;;;21.80;1.00;;;;;;5052606;28;20182;-74
2023/07/01 09:43:54;;;;;;;3.35;1.98;;;21.60;1.00;;;;;;5047920;28;20182;-74
2023/07/01 09:46:20;;;;;;;2.03;1.60;;;21.50;1.00;;;;;;5026695;28;20837;-74
2023/07/01 09:48:53;;;;;;;4.60;1.70;;;21.50;1.00;;;;;;5049917;28;20265;-73
2023/07/01 09:51:20;;;;;;;3.58;1.90;;;21.60;1.00;;;;;;5048093;28;20185;-73
2023/07/01 09:53:46;;;;;;;4.68;2.00;;;21.60;1.00;;;;;;5047358;28;20247;-73
2023/07/01 09:56:15;;;;;;;3.42;1.70;;;21.30;1.00;;;;;;5051849;28;20240;-73
2023/07/01 09:58:41;;;;;;;2.08;1.60;;;21.50;1.00;;;;;;5047896;28;20182;-74
2023/07/01 10:01:06;;;;;;;4.95;1.85;;;21.60;1.00;;;;;;5057670;28;20182;-73
2023/07/01 10:03:33;;;;;;;3.15;2.05;;;21.70;1.00;;;;;;5044271;28;20317;-74
2023/07/01 10:05:58;;;;;;;3.97;1.67;;;21.60;1.00;;;;;;5044412;28;20715;-73
2023/07/01 10:08:24;;;;;;;2.63;1.60;;;21.60;1.00;;;;;;5045230;28;20190;-73
2023/07/01 10:11:09;;;;;;;2.40;1.50;;;21.40;1.00;;;;;;5047820;28;20667;-74
2023/07/01 10:13:47;;;;;;;2.63;1.63;;;21.30;1.00;;;;;;5049557;28;20324;-73
2023/07/01 10:16:13;;;;;;;3.50;2.00;;;21.30;1.00;;;;;;5043881;28;20214;-73
2023/07/01 10:18:39;;;;;;;4.13;2.00;;;21.30;1.00;;;;;;5043669;28;20444;-73
2023/07/01 10:21:23;;;;;;;3.38;1.92;;;21.30;1.00;;;;;;5044059;28;20186;-73
2023/07/01 10:23:49;;;;;;;3.10;1.90;;;21.20;1.00;;;;;;5043443;28;20182;-74
2023/07/01 10:26:34;;;;;;;3.22;1.70;;;21.20;1.00;;;;;;5046566;28;20547;-73
2023/07/01 10:29:26;;;;;;;2.25;1.60;;;21.30;1.00;;;;;;5058151;28;20189;-73
2023/07/01 10:32:16;;;;;;;4.35;1.70;;;21.30;1.00;;;;;;5051872;28;20533;-73
2023/07/01 10:34:53;;;;;;;3.28;1.60;;;21.30;1.00;;;;;;5036870;28;20229;-74
2023/07/01 10:37:21;;;;;;;3.55;1.80;;;21.30;1.00;;;;;;5052199;28;20237;-74
2023/07/01 10:39:47;;;;;;;3.08;1.88;;;21.50;1.00;;;;;;5053155;28;20197;-73
2023/07/01 10:42:33;;;;;;;3.22;2.00;;;21.30;1.00;;;;;;5044266;28;20220;-74
2023/07/01 10:45:11;;;;;;;2.92;1.77;;;21.00;1.00;;;;;;5043477;28;20186;-74
2023/07/01 10:47:59;;;;;;;3.00;1.70;;;20.90;1.00;;;;;;5026132;28;20186;-73
2023/07/01 10:50:25;;;;;;;3.33;1.85;;;20.90;1.00;;;;;;5051328;28;20315;-74
2023/07/01 10:52:57;;;;;;;3.00;1.80;;;20.90;1.00;;;;;;5043904;28;20328;-74
2023/07/01 10:55:46;;;;;;;2.58;1.60;;;21.00;1.00;;;;;;5047123;28;20214;-74
2023/07/01 10:58:26;;;;;;;2.25;1.80;;;21.20;1.00;;;;;;5045046;28;20182;-74
2023/07/01 11:00:55;;;;;;;4.20;1.83;;;21.10;1.00;;;;;;5048646;28;20221;-73
2023/07/01 11:03:33;;;;;;;4.45;1.90;;;21.10;1.00;;;;;;5048641;28;20196;-73
2023/07/01 11:05:59;;;;;;;4.25;2.15;;;21.20;1.00;;;;;;5045190;28;20217;-75
2023/07/01 11:08:26;;;;;;;3.25;1.70;;;21.40;1.00;;;;;;5046791;28;20277;-74
2023/07/01 11:10:52;;;;;;;3.13;2.00;;;21.40;1.00;;;;;;5047373;28;20857;-74
2023/07/01 11:13:18;;;;;;;1.98;1.70;;;21.20;1.00;;;;;;5050595;28;20202;-74
2023/07/01 11:16:03;;;;;;;4.60;2.30;;;21.30;1.00;;;;;;5046736;28;20294;-74
2023/07/01 11:18:47;;;;;;;2.97;2.10;;;21.40;1.00;;;;;;5050778;28;20272;-74
2023/07/01 11:21:14;;;;;;;2.95;1.98;;;21.50;1.00;;;;;;5043394;28;20190;-74
2023/07/01 11:24:03;;;;;;;3.08;2.30;;;21.50;1.00;;;;;;5029634;28;20192;-74
2023/07/01 11:26:31;;;;;;;4.75;2.47;;;21.50;1.00;;;;;;5048073;28;20213;-74
2023/07/01 11:28:57;;;;;;;5.28;2.20;;;21.30;1.00;;;;;;5049435;28;20530;-75
2023/07/01 11:31:25;;;;;;;2.90;2.05;;;21.20;1.00;;;;;;5045787;28;20192;-74
2023/07/01 11:33:56;;;;;;;5.35;2.20;;;21.00;1.00;;;;;;5043937;28;20198;-74
2023/07/01 11:36:36;;;;;;;3.33;2.00;;;20.90;1.00;;;;;;5049661;28;20597;-74
2023/07/01 11:39:10;;;;;;;2.97;2.00;;;20.70;1.00;;;;;;5046170;28;20667;-73
2023/07/01 11:41:37;;;;;;;2.72;2.20;;;20.60;1.00;;;;;;5049118;28;20189;-75
2023/07/01 11:44:07;;;;;;;3.25;2.10;;;20.60;1.00;;;;;;5051651;28;20190;-74
2023/07/01 11:46:36;;;;;;;3.17;2.00;;;20.60;1.00;;;;;;5046837;28;20772;-73
2023/07/01 11:49:13;;;;;;;4.22;2.40;;;20.50;1.00;;;;;;5046406;28;20628;-74
2023/07/01 11:51:40;;;;;;;3.05;2.28;;;20.40;1.00;;;;;;5055771;28;20185;-74
2023/07/01 11:54:05;;;;;;;2.60;2.05;;;20.30;1.00;;;;;;5028749;28;20649;-73
2023/07/01 11:56:31;;;;;;;3.80;2.20;;;20.30;1.00;;;;;;5046498;28;20246;-75
2023/07/01 11:58:56;;;;;;;3.83;2.20;;;20.40;1.00;;;;;;5051391;28;20214;-74
2023/07/01 12:01:23;;;;;;;3.45;2.25;;;20.50;1.00;;;;;;5046300;28;20261;-73
2023/07/01 12:03:50;;;;;;;5.07;1.92;;;20.50;1.00;;;;;;5028515;28;20182;-74
2023/07/01 12:06:23;;;;;;;2.60;2.40;;;20.60;1.00;;;;;;5047467;28;20288;-74
2023/07/01 12:08:54;;;;;;;3.65;2.05;;;20.50;1.00;;;;;;5027714;28;20717;-74
2023/07/01 12:11:21;;;;;;;3.25;2.00;;;20.60;1.00;;;;;;5054750;28;20193;-73
2023/07/01 12:13:46;;;;;;;4.90;2.20;;;20.50;1.00;;;;;;5046833;28;20201;-74
2023/07/01 12:16:12;;;;;;;3.95;2.00;;;20.40;1.00;;;;;;5049257;28;20198;-73
2023/07/01 12:18:38;;;;;;;2.65;2.25;;;20.30;1.00;;;;;;5046495;28;20680;-73
2023/07/01 12:21:04;;;;;;;3.53;2.17;;;20.20;1.00;;;;;;5046100;28;21276;-74
2023/07/01 12:23:38;;;;;;;3.38;1.98;;;20.30;1.00;;;;;;5046116;28;20557;-74
2023/07/01 12:26:03;;;;;;;2.97;2.13;;;20.40;1.00;;;;;;5045768;28;20206;-74
2023/07/01 12:28:29;;;;;;;2.38;2.05;;;20.50;1.00;;;;;;5053476;28;20193;-74
2023/07/01 12:30:55;;;;;;;3.38;2.03;;;20.50;1.00;;;;;;5054030;28;20182;-73
2023/07/01 12:33:20;;;;;;;3.15;2.15;;;20.20;1.00;;;;;;5049289;28;20284;-75
2023/07/01 12:35:46;;;;;;;2.25;1.80;;;20.10;1.00;;;;;;5031603;28;20233;-74
2023/07/01 12:38:13;;;;;;;1.90;1.80;;;19.90;1.00;;;;;;5059542;28;20508;-75
2023/07/01 12:40:39;;;;;;;3.05;2.40;;;19.50;1.00;;;;;;5046544;28;20189;-74
2023/07/01 12:43:06;;;;;;;3.20;2.08;;;19.70;1.00;;;;;;5047828;28;20186;-76
2023/07/01 12:45:33;;;;;;;3.70;2.20;;;19.50;1.00;;;;;;5047487;28;20208;-74
2023/07/01 12:47:59;;;;;;;3.00;2.03;;;19.50;1.00;;;;;;5051857;28;20229;-74
2023/07/01 12:50:24;;;;;;;2.70;2.10;;;19.40;1.00;;;;;;5045040;28;20179;-74
2023/07/01 12:52:53;;;;;;;2.35;2.15;;;19.40;1.00;;;;;;5045580;28;20692;-75
2023/07/01 12:55:19;;;;;;;4.05;2.40;;;19.50;1.00;;;;;;5045246;28;20225;-73